Current | Forecast
Updated: 9:14 AM JST on August 21, 2017
Observed at Ichikawa, Japan
Temperature 79°F
Humidity 78%
Dew Point 72°F
Wind North at 2 mph
Pressure 29.98 in (Rising)
Conditions Mostly Cloudy
Visibility 6.2 miles
UV 4 out of 16
Clouds (FEW) : 1000 ft
Scattered Clouds (SCT) : 1500 ft
Mostly Cloudy (BKN) : 2500 ft
Yesterday's Maximum 72°F
Yesterday's Minimum 72°F approx.
Yesterday's Cooling Degree Days 7 approx.
Sunrise5:03 AM JST
Sunset6:23 PM JST
Moon Rise4:06 AM JST
Moon Set6:03 PM JST
Moon PhaseMoon Phase
Waning Crescent
Raw METARSPECI RJAI 210014Z 01002KT 9999 FEW010 SCT015 BKN025 26/22 Q1015 RMK 1ST010 4CU015 5SC025 A2998


Monday
. High: 77° F.
Tuesday
. High: 77° F.
Wednesday
. High: 66° F.
Thursday
. High: 73° F.
Friday
. High: 75° F.
Saturday
. High: 73° F.
Sunday
. High: 73° F.
Monday
. High: 71° F.

Units: English | Metric

Find the Weather for any City, State or Zipcode, or Country:

U.S. State List | Severe Weather | Tropical Storms | Ski Conditions
United States | Canada | Central America | South America | Asia | Europe | Australia | Africa | Islands

Weather Underground

© Copyright 2017
The Weather Company, LLC